sensor_id;sensor_type;location;lat;lon;timestamp;pressure;altitude;pressure_sealevel;temperature;humidity
14242;BME280;7205;50.864;12.766;2023-10-09T00:01:02;98122.06;;;13.26;100.00
14242;BME280;7205;50.864;12.766;2023-10-09T00:03:32;98117.22;;;13.29;100.00
14242;BME280;7205;50.864;12.766;2023-10-09T00:06:02;98128.13;;;13.34;100.00
14242;BME280;7205;50.864;12.766;2023-10-09T00:08:29;98134.03;;;13.36;100.00
14242;BME280;7205;50.864;12.766;2023-10-09T00:10:58;98125.75;;;13.39;100.00
14242;BME280;7205;50.864;12.766;2023-10-09T00:13:39;98114.78;;;13.42;100.00
14242;BME280;7205;50.864;12.766;2023-10-09T00:16:15;98088.72;;;13.46;100.00
14242;BME280;7205;50.864;12.766;2023-10-09T00:18:46;98087.31;;;13.50;100.00
14242;BME280;7205;50.864;12.766;2023-10-09T00:21:14;98080.84;;;13.52;100.00
14242;BME280;7205;50.864;12.766;2023-10-09T00:23:41;98060.88;;;13.56;100.00
14242;BME280;7205;50.864;12.766;2023-10-09T00:26:08;98042.94;;;13.58;100.00
14242;BME280;7205;50.864;12.766;2023-10-09T00:28:45;98067.47;;;13.60;100.00
14242;BME280;7205;50.864;12.766;2023-10-09T00:31:13;98068.97;;;13.63;100.00
14242;BME280;7205;50.864;12.766;2023-10-09T00:33:41;98057.78;;;13.67;100.00
14242;BME280;7205;50.864;12.766;2023-10-09T00:36:10;98047.44;;;13.72;100.00
14242;BME280;7205;50.864;12.766;2023-10-09T00:38:43;98058.31;;;13.77;100.00
14242;BME280;7205;50.864;12.766;2023-10-09T00:41:14;98057.56;;;13.83;100.00
14242;BME280;7205;50.864;12.766;2023-10-09T00:43:45;98047.03;;;13.90;100.00
14242;BME280;7205;50.864;12.766;2023-10-09T00:46:16;98045.47;;;13.96;100.00
14242;BME280;7205;50.864;12.766;2023-10-09T00:48:53;98050.03;;;14.02;100.00
14242;BME280;7205;50.864;12.766;2023-10-09T00:51:23;98051.75;;;14.09;100.00
14242;BME280;7205;50.864;12.766;2023-10-09T00:53:55;98043.22;;;14.14;100.00
14242;BME280;7205;50.864;12.766;2023-10-09T00:56:25;98029.41;;;14.18;100.00
14242;BME280;7205;50.864;12.766;2023-10-09T00:59:05;98014.72;;;14.22;100.00
14242;BME280;7205;50.864;12.766;2023-10-09T01:01:40;98005.41;;;14.26;100.00
14242;BME280;7205;50.864;12.766;2023-10-09T01:04:14;98006.03;;;14.28;100.00
14242;BME280;7205;50.864;12.766;2023-10-09T01:06:45;97999.31;;;14.32;100.00
14242;BME280;7205;50.864;12.766;2023-10-09T01:09:18;98005.91;;;14.36;100.00
14242;BME280;7205;50.864;12.766;2023-10-09T01:11:48;97996.91;;;14.37;100.00
14242;BME280;7205;50.864;12.766;2023-10-09T01:14:29;97992.88;;;14.41;100.00
14242;BME280;7205;50.864;12.766;2023-10-09T01:16:56;97986.97;;;14.46;100.00
14242;BME280;7205;50.864;12.766;2023-10-09T01:19:26;97998.06;;;14.49;100.00
14242;BME280;7205;50.864;12.766;2023-10-09T01:21:54;97991.53;;;14.52;100.00
14242;BME280;7205;50.864;12.766;2023-10-09T01:24:29;97983.38;;;14.53;100.00
14242;BME280;7205;50.864;12.766;2023-10-09T01:26:57;97972.38;;;14.56;100.00
14242;BME280;7205;50.864;12.766;2023-10-09T01:29:25;97967.50;;;14.60;100.00
14242;BME280;7205;50.864;12.766;2023-10-09T01:31:55;97961.78;;;14.63;100.00
14242;BME280;7205;50.864;12.766;2023-10-09T01:34:27;97960.75;;;14.64;100.00
14242;BME280;7205;50.864;12.766;2023-10-09T01:37:04;97958.72;;;14.66;100.00
14242;BME280;7205;50.864;12.766;2023-10-09T01:39:38;97955.88;;;14.67;100.00
14242;BME280;7205;50.864;12.766;2023-10-09T01:42:07;97948.75;;;14.68;100.00
14242;BME280;7205;50.864;12.766;2023-10-09T01:44:35;97943.03;;;14.71;100.00
14242;BME280;7205;50.864;12.766;2023-10-09T01:47:09;97940.16;;;14.72;100.00
14242;BME280;7205;50.864;12.766;2023-10-09T01:49:40;97935.50;;;14.74;100.00
14242;BME280;7205;50.864;12.766;2023-10-09T01:52:08;97933.66;;;14.75;100.00
14242;BME280;7205;50.864;12.766;2023-10-09T01:54:36;97939.78;;;14.75;100.00
14242;BME280;7205;50.864;12.766;2023-10-09T01:57:05;97940.63;;;14.76;100.00
14242;BME280;7205;50.864;12.766;2023-10-09T01:59:38;97935.94;;;14.78;100.00
14242;BME280;7205;50.864;12.766;2023-10-09T02:02:12;97935.72;;;14.79;100.00
14242;BME280;7205;50.864;12.766;2023-10-09T02:04:51;97934.69;;;14.80;100.00
14242;BME280;7205;50.864;12.766;2023-10-09T02:07:20;97924.91;;;14.81;100.00
14242;BME280;7205;50.864;12.766;2023-10-09T02:09:54;97924.50;;;14.84;100.00
14242;BME280;7205;50.864;12.766;2023-10-09T02:12:22;97923.88;;;14.82;100.00
14242;BME280;7205;50.864;12.766;2023-10-09T02:14:50;97916.53;;;14.84;100.00
14242;BME280;7205;50.864;12.766;2023-10-09T02:17:21;97908.53;;;14.84;100.00
14242;BME280;7205;50.864;12.766;2023-10-09T02:19:54;97910.41;;;14.83;100.00
14242;BME280;7205;50.864;12.766;2023-10-09T02:22:22;97896.47;;;14.81;100.00
14242;BME280;7205;50.864;12.766;2023-10-09T02:24:51;97887.03;;;14.79;100.00
14242;BME280;7205;50.864;12.766;2023-10-09T02:27:25;97875.78;;;14.77;100.00
14242;BME280;7205;50.864;12.766;2023-10-09T02:30:21;97874.13;;;14.69;100.00
14242;BME280;7205;50.864;12.766;2023-10-09T02:32:54;97888.22;;;14.70;100.00
14242;BME280;7205;50.864;12.766;2023-10-09T02:35:32;97877.78;;;14.68;100.00
14242;BME280;7205;50.864;12.766;2023-10-09T02:38:05;97885.78;;;14.68;100.00
14242;BME280;7205;50.864;12.766;2023-10-09T02:40:34;97869.00;;;14.68;100.00
14242;BME280;7205;50.864;12.766;2023-10-09T02:43:27;97854.03;;;14.67;100.00
14242;BME280;7205;50.864;12.766;2023-10-09T02:46:00;97849.56;;;14.67;100.00
14242;BME280;7205;50.864;12.766;2023-10-09T02:48:38;97849.34;;;14.69;100.00
14242;BME280;7205;50.864;12.766;2023-10-09T02:51:08;97849.78;;;14.72;100.00
14242;BME280;7205;50.864;12.766;2023-10-09T02:53:41;97852.06;;;14.75;100.00
14242;BME280;7205;50.864;12.766;2023-10-09T02:56:09;97848.00;;;14.79;100.00
14242;BME280;7205;50.864;12.766;2023-10-09T02:58:40;97843.31;;;14.81;100.00
14242;BME280;7205;50.864;12.766;2023-10-09T03:01:12;97831.25;;;14.85;100.00
14242;BME280;7205;50.864;12.766;2023-10-09T03:03:39;97821.25;;;14.87;100.00
14242;BME280;7205;50.864;12.766;2023-10-09T03:06:06;97811.63;;;14.86;100.00
14242;BME280;7205;50.864;12.766;2023-10-09T03:08:36;97817.94;;;14.85;100.00
14242;BME280;7205;50.864;12.766;2023-10-09T03:11:03;97810.38;;;14.82;100.00
14242;BME280;7205;50.864;12.766;2023-10-09T03:13:31;97818.56;;;14.81;100.00
14242;BME280;7205;50.864;12.766;2023-10-09T03:16:00;97824.69;;;14.81;100.00
14242;BME280;7205;50.864;12.766;2023-10-09T03:18:27;97812.41;;;14.80;100.00
14242;BME280;7205;50.864;12.766;2023-10-09T03:20:57;97816.09;;;14.79;100.00
14242;BME280;7205;50.864;12.766;2023-10-09T03:23:24;97797.69;;;14.78;100.00
14242;BME280;7205;50.864;12.766;2023-10-09T03:25:51;97805.66;;;14.78;100.00
14242;BME280;7205;50.864;12.766;2023-10-09T03:28:18;97806.84;;;14.75;100.00
14242;BME280;7205;50.864;12.766;2023-10-09T03:30:45;97805.03;;;14.76;100.00
14242;BME280;7205;50.864;12.766;2023-10-09T03:33:15;97789.06;;;14.76;100.00
14242;BME280;7205;50.864;12.766;2023-10-09T03:35:41;97787.88;;;14.78;100.00
14242;BME280;7205;50.864;12.766;2023-10-09T03:38:08;97804.63;;;14.79;100.00
14242;BME280;7205;50.864;12.766;2023-10-09T03:40:41;97793.19;;;14.78;100.00
14242;BME280;7205;50.864;12.766;2023-10-09T03:43:08;97815.06;;;14.80;100.00
14242;BME280;7205;50.864;12.766;2023-10-09T03:45:36;97814.69;;;14.83;100.00
14242;BME280;7205;50.864;12.766;2023-10-09T03:48:05;97824.09;;;14.86;100.00
14242;BME280;7205;50.864;12.766;2023-10-09T03:50:41;97810.41;;;14.89;100.00
14242;BME280;7205;50.864;12.766;2023-10-09T03:53:09;97807.34;;;14.92;100.00
14242;BME280;7205;50.864;12.766;2023-10-09T03:55:38;97800.81;;;14.94;100.00
14242;BME280;7205;50.864;12.766;2023-10-09T03:58:06;97810.84;;;14.99;100.00
14242;BME280;7205;50.864;12.766;2023-10-09T04:00:34;97803.50;;;15.01;100.00
14242;BME280;7205;50.864;12.766;2023-10-09T04:03:10;97810.28;;;15.03;100.00
14242;BME280;7205;50.864;12.766;2023-10-09T04:05:41;97810.88;;;15.05;100.00
14242;BME280;7205;50.864;12.766;2023-10-09T04:08:10;97797.38;;;15.07;100.00
14242;BME280;7205;50.864;12.766;2023-10-09T04:10:45;97809.47;;;15.09;100.00
14242;BME280;7205;50.864;12.766;2023-10-09T04:13:18;97808.44;;;15.10;100.00
14242;BME280;7205;50.864;12.766;2023-10-09T04:15:51;97801.09;;;15.13;100.00
14242;BME280;7205;50.864;12.766;2023-10-09T04:18:20;97795.97;;;15.11;100.00
14242;BME280;7205;50.864;12.766;2023-10-09T04:20:55;97799.25;;;15.13;100.00
14242;BME280;7205;50.864;12.766;2023-10-09T04:23:41;97800.25;;;15.12;100.00
14242;BME280;7205;50.864;12.766;2023-10-09T04:26:35;97792.69;;;15.09;100.00
14242;BME280;7205;50.864;12.766;2023-10-09T04:29:02;97797.38;;;15.07;100.00
14242;BME280;7205;50.864;12.766;2023-10-09T04:31:28;97800.25;;;15.05;100.00
14242;BME280;7205;50.864;12.766;2023-10-09T04:34:00;97790.63;;;15.04;100.00
14242;BME280;7205;50.864;12.766;2023-10-09T04:36:45;97778.53;;;15.02;100.00
14242;BME280;7205;50.864;12.766;2023-10-09T04:39:17;97797.16;;;15.02;100.00
14242;BME280;7205;50.864;12.766;2023-10-09T04:41:58;97775.06;;;15.01;100.00
14242;BME280;7205;50.864;12.766;2023-10-09T04:44:39;97767.09;;;15.01;100.00
14242;BME280;7205;50.864;12.766;2023-10-09T04:47:24;97758.09;;;15.02;100.00
14242;BME280;7205;50.864;12.766;2023-10-09T04:49:51;97760.75;;;15.02;100.00
14242;BME280;7205;50.864;12.766;2023-10-09T04:52:29;97744.78;;;15.02;100.00
14242;BME280;7205;50.864;12.766;2023-10-09T04:55:13;97758.09;;;15.02;100.00
14242;BME280;7205;50.864;12.766;2023-10-09T04:57:47;97748.28;;;15.03;100.00
14242;BME280;7205;50.864;12.766;2023-10-09T05:00:26;97741.13;;;15.03;100.00
14242;BME280;7205;50.864;12.766;2023-10-09T05:03:12;97741.94;;;15.04;100.00
14242;BME280;7205;50.864;12.766;2023-10-09T05:05:50;97736.41;;;15.05;100.00
14242;BME280;7205;50.864;12.766;2023-10-09T05:08:27;97739.69;;;15.07;100.00
14242;BME280;7205;50.864;12.766;2023-10-09T05:10:59;97747.66;;;15.07;100.00
14242;BME280;7205;50.864;12.766;2023-10-09T05:13:41;97744.00;;;15.08;100.00
14242;BME280;7205;50.864;12.766;2023-10-09T05:16:23;97746.47;;;15.10;100.00
14242;BME280;7205;50.864;12.766;2023-10-09T05:18:52;97745.44;;;15.11;100.00
14242;BME280;7205;50.864;12.766;2023-10-09T05:21:22;97743.59;;;15.12;100.00
14242;BME280;7205;50.864;12.766;2023-10-09T05:24:11;97737.25;;;15.13;100.00
14242;BME280;7205;50.864;12.766;2023-10-09T05:26:45;97737.88;;;15.15;100.00
14242;BME280;7205;50.864;12.766;2023-10-09T05:29:19;97744.03;;;15.15;100.00
14242;BME280;7205;50.864;12.766;2023-10-09T05:32:00;97727.84;;;15.17;100.00
14242;BME280;7205;50.864;12.766;2023-10-09T05:34:31;97739.28;;;15.17;100.00
14242;BME280;7205;50.864;12.766;2023-10-09T05:37:00;97741.94;;;15.17;100.00
14242;BME280;7205;50.864;12.766;2023-10-09T05:43:08;97742.97;;;15.16;100.00
14242;BME280;7205;50.864;12.766;2023-10-09T05:45:55;97746.28;;;15.18;100.00
14242;BME280;7205;50.864;12.766;2023-10-09T05:48:40;97747.28;;;15.17;100.00
14242;BME280;7205;50.864;12.766;2023-10-09T05:51:21;97751.59;;;15.18;100.00
14242;BME280;7205;50.864;12.766;2023-10-09T05:54:14;97753.84;;;15.21;100.00
14242;BME280;7205;50.864;12.766;2023-10-09T05:57:03;97752.00;;;15.22;100.00
14242;BME280;7205;50.864;12.766;2023-10-09T05:59:45;97750.78;;;15.24;100.00
14242;BME280;7205;50.864;12.766;2023-10-09T06:02:26;97755.69;;;15.27;100.00
14242;BME280;7205;50.864;12.766;2023-10-09T06:05:15;97748.94;;;15.31;100.00
14242;BME280;7205;50.864;12.766;2023-10-09T06:07:56;97762.88;;;15.33;100.00
14242;BME280;7205;50.864;12.766;2023-10-09T06:10:33;97764.94;;;15.38;100.00
14242;BME280;7205;50.864;12.766;2023-10-09T06:13:10;97750.63;;;15.39;100.00
14242;BME280;7205;50.864;12.766;2023-10-09T06:15:52;97755.56;;;15.42;100.00
14242;BME280;7205;50.864;12.766;2023-10-09T06:18:35;97759.84;;;15.43;100.00
14242;BME280;7205;50.864;12.766;2023-10-09T06:21:00;97771.94;;;15.45;100.00
14242;BME280;7205;50.864;12.766;2023-10-09T06:23:56;97760.47;;;15.45;100.00
14242;BME280;7205;50.864;12.766;2023-10-09T06:26:35;97766.41;;;15.47;100.00
14242;BME280;7205;50.864;12.766;2023-10-09T06:29:02;97766.22;;;15.48;100.00
14242;BME280;7205;50.864;12.766;2023-10-09T06:31:42;97789.75;;;15.51;100.00
14242;BME280;7205;50.864;12.766;2023-10-09T06:34:27;97789.75;;;15.51;100.00
14242;BME280;7205;50.864;12.766;2023-10-09T06:36:58;97777.28;;;15.52;100.00
14242;BME280;7205;50.864;12.766;2023-10-09T06:39:31;97774.41;;;15.53;100.00
14242;BME280;7205;50.864;12.766;2023-10-09T06:42:17;97787.72;;;15.53;100.00
14242;BME280;7205;50.864;12.766;2023-10-09T06:45:00;97807.19;;;15.54;100.00
14242;BME280;7205;50.864;12.766;2023-10-09T06:47:31;97808.81;;;15.55;100.00
14242;BME280;7205;50.864;12.766;2023-10-09T06:50:07;97794.88;;;15.53;100.00
14242;BME280;7205;50.864;12.766;2023-10-09T06:52:51;97791.59;;;15.51;100.00
14242;BME280;7205;50.864;12.766;2023-10-09T06:55:43;97800.81;;;15.48;100.00
14242;BME280;7205;50.864;12.766;2023-10-09T06:58:16;97807.97;;;15.48;100.00
14242;BME280;7205;50.864;12.766;2023-10-09T07:00:48;97804.50;;;15.47;100.00
14242;BME280;7205;50.864;12.766;2023-10-09T07:03:28;97814.13;;;15.48;100.00
14242;BME280;7205;50.864;12.766;2023-10-09T07:06:05;97822.09;;;15.48;100.00
14242;BME280;7205;50.864;12.766;2023-10-09T07:08:35;97817.41;;;15.50;100.00
14242;BME280;7205;50.864;12.766;2023-10-09T07:11:03;97830.50;;;15.52;100.00
14242;BME280;7205;50.864;12.766;2023-10-09T07:13:44;97836.47;;;15.54;100.00
14242;BME280;7205;50.864;12.766;2023-10-09T07:16:20;97831.94;;;15.54;100.00
14242;BME280;7205;50.864;12.766;2023-10-09T07:18:50;97837.88;;;15.56;100.00
14242;BME280;7205;50.864;12.766;2023-10-09T07:21:20;97832.34;;;15.58;100.00
14242;BME280;7205;50.864;12.766;2023-10-09T07:23:55;97844.03;;;15.63;100.00
14242;BME280;7205;50.864;12.766;2023-10-09T07:26:25;97849.59;;;15.68;100.00
14242;BME280;7205;50.864;12.766;2023-10-09T07:29:03;97844.69;;;15.72;100.00
14242;BME280;7205;50.864;12.766;2023-10-09T07:31:48;97845.31;;;15.74;100.00
14242;BME280;7205;50.864;12.766;2023-10-09T07:34:24;97853.09;;;15.75;100.00
14242;BME280;7205;50.864;12.766;2023-10-09T07:36:56;97857.81;;;15.80;100.00
14242;BME280;7205;50.864;12.766;2023-10-09T07:39:30;97856.97;;;15.86;100.00
14242;BME280;7205;50.864;12.766;2023-10-09T07:42:01;97867.66;;;15.92;100.00
14242;BME280;7205;50.864;12.766;2023-10-09T07:44:41;97869.72;;;15.97;100.00
14242;BME280;7205;50.864;12.766;2023-10-09T07:47:18;97872.78;;;16.00;100.00
14242;BME280;7205;50.864;12.766;2023-10-09T07:50:00;97873.41;;;16.02;100.00
14242;BME280;7205;50.864;12.766;2023-10-09T07:52:27;97859.06;;;16.03;100.00
14242;BME280;7205;50.864;12.766;2023-10-09T07:54:55;97861.50;;;16.05;100.00
14242;BME280;7205;50.864;12.766;2023-10-09T07:57:27;97866.84;;;16.05;100.00
14242;BME280;7205;50.864;12.766;2023-10-09T08:00:05;97871.13;;;16.06;100.00
14242;BME280;7205;50.864;12.766;2023-10-09T08:02:59;97867.88;;;15.97;100.00
14242;BME280;7205;50.864;12.766;2023-10-09T08:05:29;97865.19;;;15.91;100.00
14242;BME280;7205;50.864;12.766;2023-10-09T08:08:01;97870.69;;;15.83;100.00
14242;BME280;7205;50.864;12.766;2023-10-09T08:11:07;97876.00;;;15.70;100.00
14242;BME280;7205;50.864;12.766;2023-10-09T08:14:00;97879.66;;;15.56;100.00
14242;BME280;7205;50.864;12.766;2023-10-09T08:16:27;97882.91;;;15.45;100.00
14242;BME280;7205;50.864;12.766;2023-10-09T08:19:02;97897.97;;;15.38;100.00
14242;BME280;7205;50.864;12.766;2023-10-09T08:21:47;97897.13;;;15.31;100.00
14242;BME280;7205;50.864;12.766;2023-10-09T08:24:42;97904.88;;;15.26;100.00
14242;BME280;7205;50.864;12.766;2023-10-09T08:27:18;97921.06;;;15.24;100.00
14242;BME280;7205;50.864;12.766;2023-10-09T08:30:04;97911.44;;;15.23;100.00
14242;BME280;7205;50.864;12.766;2023-10-09T08:32:54;97915.94;;;15.23;100.00
14242;BME280;7205;50.864;12.766;2023-10-09T08:35:26;97910.81;;;15.21;100.00
14242;BME280;7205;50.864;12.766;2023-10-09T08:37:57;97925.16;;;15.27;100.00
14242;BME280;7205;50.864;12.766;2023-10-09T08:40:31;97916.59;;;15.31;100.00
14242;BME280;7205;50.864;12.766;2023-10-09T08:43:08;97929.09;;;15.37;100.00
14242;BME280;7205;50.864;12.766;2023-10-09T08:45:37;97932.03;;;15.42;100.00
14242;BME280;7205;50.864;12.766;2023-10-09T08:48:07;97929.41;;;15.49;100.00
14242;BME280;7205;50.864;12.766;2023-10-09T08:50:35;97921.63;;;15.54;100.00
14242;BME280;7205;50.864;12.766;2023-10-09T08:53:04;97915.72;;;15.58;100.00
14242;BME280;7205;50.864;12.766;2023-10-09T08:55:31;97923.28;;;15.61;100.00
14242;BME280;7205;50.864;12.766;2023-10-09T08:57:58;97917.56;;;15.64;100.00
14242;BME280;7205;50.864;12.766;2023-10-09T09:00:25;97913.06;;;15.65;100.00
14242;BME280;7205;50.864;12.766;2023-10-09T09:02:58;97919.84;;;15.67;100.00
14242;BME280;7205;50.864;12.766;2023-10-09T09:05:26;97927.44;;;15.70;100.00
14242;BME280;7205;50.864;12.766;2023-10-09T09:07:54;97921.91;;;15.72;100.00
14242;BME280;7205;50.864;12.766;2023-10-09T09:10:28;97918.81;;;15.75;100.00
14242;BME280;7205;50.864;12.766;2023-10-09T09:13:02;97911.06;;;15.80;100.00
14242;BME280;7205;50.864;12.766;2023-10-09T09:15:30;97914.56;;;15.87;100.00
14242;BME280;7205;50.864;12.766;2023-10-09T09:18:04;97917.66;;;15.90;100.00
14242;BME280;7205;50.864;12.766;2023-10-09T09:20:32;97909.88;;;15.95;100.00
14242;BME280;7205;50.864;12.766;2023-10-09T09:23:00;97905.97;;;15.98;100.00
14242;BME280;7205;50.864;12.766;2023-10-09T09:25:41;97907.22;;;16.02;100.00
14242;BME280;7205;50.864;12.766;2023-10-09T09:28:11;97902.09;;;16.07;100.00
14242;BME280;7205;50.864;12.766;2023-10-09T09:30:45;97907.84;;;16.10;100.00
14242;BME280;7205;50.864;12.766;2023-10-09T09:33:20;97897.81;;;16.12;100.00
14242;BME280;7205;50.864;12.766;2023-10-09T09:35:59;97903.34;;;16.17;100.00
14242;BME280;7205;50.864;12.766;2023-10-09T09:38:28;97913.81;;;16.25;100.00
14242;BME280;7205;50.864;12.766;2023-10-09T09:41:02;97920.97;;;16.31;100.00
14242;BME280;7205;50.864;12.766;2023-10-09T09:43:34;97912.56;;;16.34;100.00
14242;BME280;7205;50.864;12.766;2023-10-09T09:46:02;97924.69;;;16.37;100.00
14242;BME280;7205;50.864;12.766;2023-10-09T09:48:37;97912.97;;;16.38;100.00
14242;BME280;7205;50.864;12.766;2023-10-09T09:51:05;97906.84;;;16.44;100.00
14242;BME280;7205;50.864;12.766;2023-10-09T09:53:34;97909.13;;;16.47;100.00
14242;BME280;7205;50.864;12.766;2023-10-09T09:56:03;97915.28;;;16.48;100.00
14242;BME280;7205;50.864;12.766;2023-10-09T09:58:31;97903.78;;;16.47;100.00
14242;BME280;7205;50.864;12.766;2023-10-09T10:01:08;97901.50;;;16.44;100.00
14242;BME280;7205;50.864;12.766;2023-10-09T10:03:45;97877.91;;;16.41;100.00
14242;BME280;7205;50.864;12.766;2023-10-09T10:06:18;97879.78;;;16.41;100.00
14242;BME280;7205;50.864;12.766;2023-10-09T10:08:48;97884.06;;;16.42;100.00
14242;BME280;7205;50.864;12.766;2023-10-09T10:11:43;97866.88;;;16.38;100.00
14242;BME280;7205;50.864;12.766;2023-10-09T10:14:11;97878.53;;;16.37;100.00
14242;BME280;7205;50.864;12.766;2023-10-09T10:17:03;97878.34;;;16.31;100.00
14242;BME280;7205;50.864;12.766;2023-10-09T10:20:03;97865.63;;;16.27;100.00
14242;BME280;7205;50.864;12.766;2023-10-09T10:22:51;97854.56;;;16.23;100.00
14242;BME280;7205;50.864;12.766;2023-10-09T10:25:33;97850.44;;;16.21;100.00
14242;BME280;7205;50.864;12.766;2023-10-09T10:28:18;97858.66;;;16.19;100.00
14242;BME280;7205;50.864;12.766;2023-10-09T10:31:08;97849.03;;;16.18;100.00
14242;BME280;7205;50.864;12.766;2023-10-09T10:34:04;97832.41;;;16.16;100.00
14242;BME280;7205;50.864;12.766;2023-10-09T10:36:36;97828.31;;;16.20;100.00
14242;BME280;7205;50.864;12.766;2023-10-09T10:39:08;97833.22;;;16.30;100.00
14242;BME280;7205;50.864;12.766;2023-10-09T10:41:37;97839.38;;;16.44;100.00
14242;BME280;7205;50.864;12.766;2023-10-09T10:44:24;97845.75;;;16.56;100.00
14242;BME280;7205;50.864;12.766;2023-10-09T10:47:05;97841.03;;;16.64;100.00
14242;BME280;7205;50.864;12.766;2023-10-09T10:49:47;97842.44;;;16.67;100.00
14242;BME280;7205;50.864;12.766;2023-10-09T10:52:24;97831.56;;;16.68;100.00
14242;BME280;7205;50.864;12.766;2023-10-09T10:55:10;97821.94;;;16.67;100.00
14242;BME280;7205;50.864;12.766;2023-10-09T10:57:44;97821.72;;;16.69;100.00
14242;BME280;7205;50.864;12.766;2023-10-09T11:00:27;97825.00;;;16.71;100.00
14242;BME280;7205;50.864;12.766;2023-10-09T11:03:17;97821.94;;;16.67;100.00
14242;BME280;7205;50.864;12.766;2023-10-09T11:05:46;97816.59;;;16.67;100.00
14242;BME280;7205;50.864;12.766;2023-10-09T11:08:17;97804.69;;;16.63;100.00
14242;BME280;7205;50.864;12.766;2023-10-09T11:10:49;97799.78;;;16.60;100.00
14242;BME280;7205;50.864;12.766;2023-10-09T11:13:23;97796.72;;;16.57;100.00
14242;BME280;7205;50.864;12.766;2023-10-09T11:16:04;97805.75;;;16.56;100.00
14242;BME280;7205;50.864;12.766;2023-10-09T11:18:45;97781.75;;;16.56;100.00
14242;BME280;7205;50.864;12.766;2023-10-09T11:21:13;97768.00;;;16.59;100.00
14242;BME280;7205;50.864;12.766;2023-10-09T11:23:59;97785.41;;;16.61;100.00
14242;BME280;7205;50.864;12.766;2023-10-09T11:26:50;97788.47;;;16.65;100.00
14242;BME280;7205;50.864;12.766;2023-10-09T11:29:21;97777.44;;;16.68;100.00
14242;BME280;7205;50.864;12.766;2023-10-09T11:32:18;97771.66;;;16.71;100.00
14242;BME280;7205;50.864;12.766;2023-10-09T11:34:44;97767.97;;;16.72;100.00
14242;BME280;7205;50.864;12.766;2023-10-09T11:37:18;97761.78;;;16.71;100.00
14242;BME280;7205;50.864;12.766;2023-10-09T11:39:58;97773.72;;;16.69;100.00
14242;BME280;7205;50.864;12.766;2023-10-09T11:42:27;97767.78;;;16.67;100.00
14242;BME280;7205;50.864;12.766;2023-10-09T11:45:02;97776.19;;;16.64;100.00
14242;BME280;7205;50.864;12.766;2023-10-09T11:47:46;97784.63;;;16.61;100.00
14242;BME280;7205;50.864;12.766;2023-10-09T11:50:38;97787.88;;;16.56;100.00
14242;BME280;7205;50.864;12.766;2023-10-09T11:53:08;97781.56;;;16.57;100.00
14242;BME280;7205;50.864;12.766;2023-10-09T11:55:36;97781.97;;;16.54;100.00
14242;BME280;7205;50.864;12.766;2023-10-09T11:58:03;97778.69;;;16.52;100.00
14242;BME280;7205;50.864;12.766;2023-10-09T12:00:30;97785.66;;;16.53;100.00
14242;BME280;7205;50.864;12.766;2023-10-09T12:03:10;97786.25;;;16.55;100.00
14242;BME280;7205;50.864;12.766;2023-10-09T12:05:37;97780.50;;;16.58;100.00
14242;BME280;7205;50.864;12.766;2023-10-09T12:08:08;97774.97;;;16.60;100.00
14242;BME280;7205;50.864;12.766;2023-10-09T12:10:35;97784.84;;;16.59;100.00
14242;BME280;7205;50.864;12.766;2023-10-09T12:13:04;97787.09;;;16.56;100.00
14242;BME280;7205;50.864;12.766;2023-10-09T12:15:31;97776.84;;;16.53;100.00
14242;BME280;7205;50.864;12.766;2023-10-09T12:18:04;97784.44;;;16.49;100.00
14242;BME280;7205;50.864;12.766;2023-10-09T12:20:36;97779.28;;;16.41;100.00
14242;BME280;7205;50.864;12.766;2023-10-09T12:23:03;97791.00;;;16.33;100.00
14242;BME280;7205;50.864;12.766;2023-10-09T12:25:32;97792.44;;;16.29;100.00
14242;BME280;7205;50.864;12.766;2023-10-09T12:27:59;97788.56;;;16.25;100.00
14242;BME280;7205;50.864;12.766;2023-10-09T12:30:27;97798.81;;;16.22;100.00
14242;BME280;7205;50.864;12.766;2023-10-09T12:32:55;97807.44;;;16.17;100.00
14242;BME280;7205;50.864;12.766;2023-10-09T12:35:23;97797.56;;;16.11;100.00
14242;BME280;7205;50.864;12.766;2023-10-09T12:37:52;97787.34;;;16.02;100.00
14242;BME280;7205;50.864;12.766;2023-10-09T12:40:21;97797.78;;;15.97;100.00
14242;BME280;7205;50.864;12.766;2023-10-09T12:42:54;97792.47;;;15.90;100.00
14242;BME280;7205;50.864;12.766;2023-10-09T12:45:24;97793.47;;;15.89;100.00
14242;BME280;7205;50.864;12.766;2023-10-09T12:47:53;97796.97;;;15.90;100.00
14242;BME280;7205;50.864;12.766;2023-10-09T12:50:24;97798.22;;;15.87;100.00
14242;BME280;7205;50.864;12.766;2023-10-09T12:52:57;97805.38;;;15.87;100.00
14242;BME280;7205;50.864;12.766;2023-10-09T12:55:27;97813.34;;;15.87;100.00
14242;BME280;7205;50.864;12.766;2023-10-09T12:57:59;97807.63;;;15.83;100.00
14242;BME280;7205;50.864;12.766;2023-10-09T13:00:29;97809.25;;;15.84;100.00
14242;BME280;7205;50.864;12.766;2023-10-09T13:02:58;97813.78;;;15.84;100.00
14242;BME280;7205;50.864;12.766;2023-10-09T13:05:26;97814.38;;;15.86;100.00
14242;BME280;7205;50.864;12.766;2023-10-09T13:07:53;97816.22;;;15.85;100.00
14242;BME280;7205;50.864;12.766;2023-10-09T13:10:23;97818.28;;;15.83;100.00
14242;BME280;7205;50.864;12.766;2023-10-09T13:12:51;97808.44;;;15.84;100.00
14242;BME280;7205;50.864;12.766;2023-10-09T13:15:21;97814.56;;;15.84;100.00
14242;BME280;7205;50.864;12.766;2023-10-09T13:17:48;97813.56;;;15.85;100.00
14242;BME280;7205;50.864;12.766;2023-10-09T13:20:18;97818.69;;;15.87;100.00
14242;BME280;7205;50.864;12.766;2023-10-09T13:22:47;97819.50;;;15.87;100.00
14242;BME280;7205;50.864;12.766;2023-10-09T13:25:14;97828.94;;;15.90;100.00
14242;BME280;7205;50.864;12.766;2023-10-09T13:27:44;97832.41;;;15.90;100.00
14242;BME280;7205;50.864;12.766;2023-10-09T13:30:17;97832.22;;;15.92;100.00